Detall de PIREP

Printer-friendly versionPDF version

[2013/05/14 09:27:00]
Flight IATA:CT0001
Pilot Number:042
Company ICAO:CAT
Aircraft Type:F70/A
PAX:28
Aircraft Registration:PFJ
Departing Airport: LEGE
Destination Airport: LEIB
Alternate Airport:LEPA
Online: VATSIM
Route:BEXUR UN975 BCN UZ174 CORDA
Flight Level:F250
No Slew and time accel
No pause
Crash detect
Detect pilot in Cockpit between each 30 and 45 minutes
09:27 Zero fuel Weight: 72667 Lbs, Fuel Weight: 22685 Lbs
09:27 VATSIM:LEGE 140900Z 16002KT 9999 FEW032 19/13 Q1014
09:27 VATSIM:LEIB 140900Z 05008KT 9999 FEW015 19/16 Q1015 NOSIG
09:27 VOICE CATALONIAN
09:33 Parking Brakes off
09:38 Take-off
09:38 Take off Weight: 94840 Lbs
09:38 Wind: 200º @ 009 Knots Heading: 196º
09:38 POS N41º 53´ 51´´ E002º 45´ 32´´
09:38 Gear Up: 178 Knots
09:38 Flaps:2 at 178 Knots
09:38 Flaps:1 at 194 Knots
09:39 Flaps:0 at 223 Knots
09:51 TOC
09:51 Fuel Weight: 20590 Lb
09:53 Wind:312º@053 Knots Heading: 239º Ground Speed: 373 Knots Altitude 25036 ft
10:08 Wind:311º@043 Knots Heading: 234º Ground Speed: 446 Knots Altitude 25062 ft
10:08 TOD
10:08 Fuel Weight: 18848 Lb
10:13 Flaps:1 at 216 Knots
10:23 Wind:250º@013 Knots Heading: 200º Ground Speed: 202 Knots Altitude 2910 ft
10:27 Flaps:2 at 170 Knots
10:28 Gear Down: 169 Knots
10:28 Flaps:3 at 169 Knots
10:31 TouchDown:Rate -239 ft/min Speed: 147 Knots
10:31 Flaps:4 at 103 Knots
10:31 VATSIM:LEIB 141000Z 07011KT 9999 FEW040 20/16 Q1014 NOSIG
10:31 Land
10:31 Wind:210º@012 Knots
10:31 Heading: 063º
10:31 Flight Duration: 00:53
10:31 Landing Weight: 90384 Lbs
10:31 POS N38º 52´ 25´´ E001º 22´ 31´´
10:36 Parking brakes on
10:36 Block to Block Duration: 01:03
10:36 Final Fuel: 17517 Lbls
10:36 Spent Fuel: 5167 Lbls
10:36 Flight Length: 282 NM
10:36 TOD Land Length: 90 NM

Exportar CSV

Powered by Drupal - Modified by Danger4k